Time;durP1;ratioP1;P1;durP2;ratioP2;P2;SDS_P1;SDS_P2;PMS_P1;PMS_P2;Temp;Humidity;BMP_temperature;BMP_pressure;BME280_temperature;BME280_humidity;BME280_pressure;Samples;Min_cycle;Max_cycle;Signal;HPM_P1;HPM_P2
2021/12/17 00:05:02;;;;;;;116.93;41.93;;;9.40;99.90;;;;;;5056921;28;20036;-81
2021/12/17 00:07:30;;;;;;;120.00;41.50;;;9.50;99.90;;;;;;5056178;28;20055;-82
2021/12/17 00:09:58;;;;;;;92.53;39.00;;;9.50;99.90;;;;;;5057203;28;20075;-81
2021/12/17 00:12:26;;;;;;;116.80;38.03;;;9.40;99.90;;;;;;5055239;28;20020;-80
2021/12/17 00:14:53;;;;;;;93.47;42.00;;;9.30;99.90;;;;;;5039454;28;20056;-81
2021/12/17 00:17:25;;;;;;;100.87;42.63;;;9.30;99.90;;;;;;5055311;28;20028;-81
2021/12/17 00:50:22;;;;;;;92.83;39.80;;;10.10;99.90;;;;;;5055575;28;20048;-81
2021/12/17 00:52:47;;;;;;;106.90;39.93;;;10.10;99.90;;;;;;5054634;28;20116;-82
2021/12/17 00:55:12;;;;;;;106.27;40.80;;;10.00;99.90;;;;;;5037548;28;20060;-82
2021/12/17 00:57:43;;;;;;;100.40;41.50;;;10.10;99.90;;;;;;5055054;28;20028;-82
2021/12/17 01:00:15;;;;;;;108.07;46.40;;;10.00;99.90;;;;;;5039928;28;20454;-81
2021/12/17 01:02:42;;;;;;;116.38;41.33;;;10.00;99.90;;;;;;5055846;28;20616;-82
2021/12/17 01:05:12;;;;;;;106.13;44.30;;;10.10;99.90;;;;;;5038942;28;20067;-80
2021/12/17 01:07:40;;;;;;;142.27;42.47;;;10.20;99.90;;;;;;5055305;28;20544;-81
2021/12/17 01:10:14;;;;;;;105.43;39.87;;;10.20;99.90;;;;;;5054600;28;20116;-82
2021/12/17 01:12:40;;;;;;;99.57;40.13;;;10.10;99.90;;;;;;5055986;28;20051;-81
2021/12/17 01:15:12;;;;;;;147.57;38.47;;;10.20;99.90;;;;;;5040071;28;20487;-79
2021/12/17 01:17:41;;;;;;;101.20;39.70;;;10.10;99.90;;;;;;5057357;28;20533;-80
2021/12/17 01:20:27;;;;;;;107.70;39.03;;;10.10;99.90;;;;;;5056749;28;20033;-81
2021/12/17 01:23:10;;;;;;;233.20;37.07;;;10.10;99.90;;;;;;5055604;28;20059;-79
2021/12/17 01:36:31;;;;;;;129.43;34.83;;;9.90;99.90;;;;;;5055730;28;20460;-80
2021/12/17 01:42:05;;;;;;;90.90;36.17;;;9.90;99.90;;;;;;5047872;28;20447;-81
2021/12/17 01:44:38;;;;;;;101.13;36.10;;;9.90;99.90;;;;;;5056803;28;20444;-80
2021/12/17 01:47:06;;;;;;;89.80;34.73;;;9.90;99.90;;;;;;5053613;28;20780;-81
2021/12/17 02:00:21;;;;;;;86.77;34.03;;;10.00;99.90;;;;;;5055095;28;20396;-83
2021/12/17 02:02:55;;;;;;;93.23;34.20;;;9.90;99.90;;;;;;5053603;28;20021;-82
2021/12/17 02:05:21;;;;;;;89.83;35.40;;;9.90;99.90;;;;;;5054247;28;20369;-81
2021/12/17 02:07:49;;;;;;;89.67;34.50;;;9.90;99.90;;;;;;5052591;28;20032;-82
2021/12/17 02:33:54;;;;;;;78.67;32.20;;;9.80;99.90;;;;;;5054089;28;20036;-80
2021/12/17 02:36:24;;;;;;;77.90;32.73;;;9.80;99.90;;;;;;5052667;28;20359;-81
2021/12/17 02:38:53;;;;;;;78.23;31.97;;;9.80;99.90;;;;;;5020375;28;20033;-81
2021/12/17 02:46:47;;;;;;;81.73;32.10;;;9.80;99.90;;;;;;5057410;28;20103;-82
2021/12/17 02:49:13;;;;;;;97.87;31.97;;;9.80;99.90;;;;;;5023445;28;20033;-81
2021/12/17 02:51:40;;;;;;;83.20;33.47;;;9.70;99.90;;;;;;5024049;28;20481;-82
2021/12/17 02:54:06;;;;;;;77.23;31.87;;;9.70;99.90;;;;;;5041327;28;20402;-81
2021/12/17 02:56:32;;;;;;;93.20;31.47;;;9.80;99.90;;;;;;5024468;28;20496;-80
2021/12/17 02:58:59;;;;;;;70.07;31.77;;;9.80;99.90;;;;;;5058259;28;20021;-82
2021/12/17 03:01:25;;;;;;;81.57;32.30;;;9.80;99.90;;;;;;5057756;28;20033;-82
2021/12/17 03:03:53;;;;;;;76.30;31.73;;;9.80;99.90;;;;;;5039528;28;20357;-80
2021/12/17 03:06:20;;;;;;;71.67;31.23;;;9.80;99.90;;;;;;5039618;28;20115;-82
2021/12/17 03:08:47;;;;;;;88.30;31.37;;;9.70;99.90;;;;;;5055597;28;20086;-81
2021/12/17 03:11:14;;;;;;;74.57;31.17;;;9.80;99.90;;;;;;5058158;28;20029;-81
2021/12/17 03:13:39;;;;;;;83.63;32.33;;;9.70;99.90;;;;;;5023215;28;20133;-81
2021/12/17 03:16:25;;;;;;;72.63;30.93;;;9.80;99.90;;;;;;5055125;28;20460;-82
2021/12/17 03:24:01;;;;;;;77.00;31.10;;;9.70;99.90;;;;;;5055738;28;20075;-82
2021/12/17 03:26:28;;;;;;;72.73;31.17;;;9.70;99.90;;;;;;5055496;28;20029;-83
2021/12/17 03:28:57;;;;;;;80.80;32.53;;;9.70;99.90;;;;;;5055855;28;20036;-80
2021/12/17 03:31:24;;;;;;;78.30;31.53;;;9.70;99.90;;;;;;5056360;28;20099;-82
2021/12/17 03:33:52;;;;;;;77.47;32.37;;;9.70;99.90;;;;;;5056545;28;20036;-81
2021/12/17 03:36:19;;;;;;;94.57;33.90;;;9.70;99.90;;;;;;5054546;28;20115;-81
2021/12/17 03:38:50;;;;;;;83.90;33.67;;;9.70;99.90;;;;;;5055221;28;20067;-79
2021/12/17 03:41:23;;;;;;;85.77;32.97;;;9.60;99.90;;;;;;5037720;28;20049;-80
2021/12/17 03:43:51;;;;;;;101.00;31.77;;;9.70;99.90;;;;;;5056311;28;20060;-80
2021/12/17 03:46:18;;;;;;;85.00;32.47;;;9.60;99.90;;;;;;5054322;28;20094;-82
2021/12/17 03:48:45;;;;;;;92.80;32.80;;;9.70;99.90;;;;;;5037657;28;20546;-81
2021/12/17 03:51:14;;;;;;;95.83;32.17;;;9.60;99.90;;;;;;5054725;28;20025;-82
2021/12/17 03:53:43;;;;;;;94.27;31.67;;;9.60;99.90;;;;;;5039682;28;20163;-81
2021/12/17 03:56:10;;;;;;;154.93;34.23;;;9.50;99.90;;;;;;5056884;28;20029;-82
2021/12/17 03:58:35;;;;;;;116.77;34.07;;;9.60;99.90;;;;;;5055960;28;20024;-82
2021/12/17 04:01:01;;;;;;;107.53;33.17;;;9.50;99.90;;;;;;5056066;28;20021;-82
2021/12/17 04:03:27;;;;;;;96.03;33.03;;;9.50;99.90;;;;;;5039362;28;20385;-81
2021/12/17 04:05:52;;;;;;;122.90;34.93;;;9.50;99.90;;;;;;5055557;28;20120;-80
2021/12/17 04:08:18;;;;;;;104.07;33.23;;;9.50;99.90;;;;;;5057750;28;20036;-82
2021/12/17 04:10:48;;;;;;;118.70;34.70;;;9.60;99.90;;;;;;5058111;28;20029;-81
2021/12/17 04:18:41;;;;;;;106.45;33.17;;;9.70;99.90;;;;;;5055391;28;20057;-81
2021/12/17 04:21:15;;;;;;;99.20;32.50;;;9.70;99.90;;;;;;5057452;28;20071;-82
2021/12/17 04:23:42;;;;;;;121.10;32.40;;;9.70;99.90;;;;;;5056083;28;20029;-82
2021/12/17 04:26:09;;;;;;;134.53;34.97;;;9.70;99.90;;;;;;5055283;28;20029;-81
2021/12/17 04:28:41;;;;;;;110.33;35.17;;;9.70;99.90;;;;;;5054411;28;20437;-81
2021/12/17 04:31:07;;;;;;;109.60;34.27;;;9.70;99.90;;;;;;5054341;28;20040;-81
2021/12/17 04:33:32;;;;;;;98.37;33.47;;;9.60;99.90;;;;;;5020937;28;20035;-81
2021/12/17 04:35:58;;;;;;;99.83;33.70;;;9.60;99.90;;;;;;5056201;28;20029;-81
2021/12/17 04:38:26;;;;;;;117.47;33.97;;;9.70;99.90;;;;;;5053669;28;20488;-81
2021/12/17 04:40:53;;;;;;;100.17;32.53;;;9.70;99.90;;;;;;5053259;28;20148;-79
2021/12/17 04:43:33;;;;;;;105.97;33.43;;;9.60;99.90;;;;;;5053169;28;20056;-82
2021/12/17 04:46:16;;;;;;;106.47;34.07;;;9.60;99.90;;;;;;5053430;28;20021;-82
2021/12/17 04:59:37;;;;;;;128.03;34.33;;;9.60;99.90;;;;;;5041528;28;20051;-81
2021/12/17 05:02:03;;;;;;;119.97;34.40;;;9.50;99.90;;;;;;5038028;28;20117;-81
2021/12/17 05:04:29;;;;;;;178.77;34.53;;;9.40;99.90;;;;;;5037476;28;20531;-82
2021/12/17 05:06:55;;;;;;;154.53;31.80;;;9.30;99.90;;;;;;5055106;28;20029;-79
2021/12/17 05:09:38;;;;;;;107.10;29.90;;;9.00;99.90;;;;;;5037777;28;20099;-83
2021/12/17 05:20:25;;;;;;;94.87;28.20;;;8.60;99.90;;;;;;5054816;28;20056;-80
2021/12/17 05:22:56;;;;;;;;;;;8.70;99.90;;;;;;5055584;28;20033;-80
2021/12/17 05:25:26;;;;;;;120.97;30.73;;;8.90;99.90;;;;;;5039447;28;19986;-82
2021/12/17 05:27:53;;;;;;;123.10;31.33;;;8.90;99.90;;;;;;5040071;28;20032;-83
2021/12/17 05:30:18;;;;;;;107.57;32.63;;;8.90;99.90;;;;;;5057172;28;20071;-82
2021/12/17 05:32:44;;;;;;;96.70;30.73;;;8.80;99.90;;;;;;5058175;28;20029;-83
2021/12/17 05:35:10;;;;;;;106.90;30.53;;;8.80;99.90;;;;;;5039840;28;20183;-83
2021/12/17 05:37:37;;;;;;;86.30;29.50;;;8.90;99.90;;;;;;5056958;28;20029;-81
2021/12/17 05:40:03;;;;;;;91.43;29.77;;;9.00;99.90;;;;;;5056853;28;20052;-81
2021/12/17 05:42:28;;;;;;;70.70;25.20;;;9.00;99.90;;;;;;5055899;28;20087;-82
2021/12/17 05:44:59;;;;;;;76.30;26.13;;;9.10;99.90;;;;;;5035519;28;20024;-80
2021/12/17 05:47:24;;;;;;;68.77;25.27;;;9.00;99.90;;;;;;5036950;28;20021;-80
2021/12/17 05:49:50;;;;;;;77.17;26.17;;;9.00;99.90;;;;;;5034997;28;20432;-80
2021/12/17 05:52:16;;;;;;;69.57;26.03;;;9.00;99.90;;;;;;5051706;28;20029;-80
2021/12/17 05:54:41;;;;;;;69.20;25.40;;;9.00;99.90;;;;;;5051840;28;20041;-80
2021/12/17 05:57:07;;;;;;;77.23;27.23;;;9.00;99.90;;;;;;5051801;28;20127;-80
2021/12/17 05:59:35;;;;;;;74.40;26.07;;;9.00;99.90;;;;;;5019356;28;20097;-78
2021/12/17 06:02:03;;;;;;;68.67;25.63;;;9.10;99.90;;;;;;5035440;28;20074;-79
2021/12/17 06:04:29;;;;;;;66.20;24.47;;;9.10;99.90;;;;;;5036189;28;20025;-80
2021/12/17 06:06:55;;;;;;;64.90;25.27;;;9.20;99.90;;;;;;5057409;28;20041;-79
2021/12/17 06:09:20;;;;;;;67.23;25.80;;;9.30;99.90;;;;;;5063089;28;20044;-79
2021/12/17 06:11:46;;;;;;;70.40;26.53;;;9.40;99.90;;;;;;5061579;28;20060;-78
2021/12/17 06:14:12;;;;;;;68.50;26.93;;;9.40;99.90;;;;;;5022716;28;20064;-78
2021/12/17 06:16:37;;;;;;;65.67;26.63;;;9.40;99.90;;;;;;5056967;28;20029;-79
2021/12/17 06:19:03;;;;;;;71.07;27.37;;;9.30;99.90;;;;;;5039842;28;20064;-80
2021/12/17 06:21:29;;;;;;;75.47;28.57;;;9.30;99.90;;;;;;5039232;28;20116;-80
2021/12/17 06:23:55;;;;;;;78.40;28.17;;;9.20;99.90;;;;;;5055867;28;20120;-80
2021/12/17 06:26:21;;;;;;;73.77;27.53;;;9.10;99.90;;;;;;5055944;28;20025;-79
2021/12/17 06:28:50;;;;;;;75.40;28.43;;;9.00;99.90;;;;;;5040864;28;20527;-79
2021/12/17 06:31:20;;;;;;;79.23;28.43;;;8.90;99.90;;;;;;5056402;28;20057;-79
2021/12/17 06:33:46;;;;;;;73.20;26.97;;;8.80;99.90;;;;;;5039754;28;20036;-80
2021/12/17 06:36:12;;;;;;;82.10;29.63;;;8.70;99.90;;;;;;5055381;28;20102;-79
2021/12/17 06:38:38;;;;;;;80.33;28.30;;;8.70;99.90;;;;;;5038681;28;20063;-80
2021/12/17 06:41:03;;;;;;;79.93;28.87;;;8.70;99.90;;;;;;5038162;28;20489;-80
2021/12/17 06:43:37;;;;;;;80.37;28.03;;;8.80;99.90;;;;;;5055310;28;20040;-79
2021/12/17 06:46:14;;;;;;;76.73;26.57;;;8.70;99.90;;;;;;5040406;28;20040;-79
2021/12/17 06:48:41;;;;;;;75.70;27.27;;;8.90;99.90;;;;;;5055389;28;20033;-78
2021/12/17 07:17:43;;;;;;;53.93;21.23;;;9.50;99.90;;;;;;5055976;28;20075;-79
2021/12/17 07:28:11;;;;;;;64.07;23.87;;;9.50;99.90;;;;;;5054612;28;20048;-79
2021/12/17 07:33:33;;;;;;;59.53;22.13;;;9.70;99.90;;;;;;5040123;28;20393;-79
2021/12/17 07:36:07;;;;;;;55.57;19.67;;;9.70;99.90;;;;;;5055844;28;20083;-79
2021/12/17 07:41:01;;;;;;;48.83;18.53;;;9.70;99.90;;;;;;5037545;28;20087;-80
2021/12/17 07:45:58;;;;;;;63.07;18.80;;;9.70;99.90;;;;;;5055290;28;20056;-80
2021/12/17 07:48:24;;;;;;;50.60;18.37;;;9.70;99.90;;;;;;5037981;28;20041;-80
2021/12/17 07:50:50;;;;;;;51.07;18.80;;;9.70;99.90;;;;;;5054312;28;20385;-80
2021/12/17 07:53:17;;;;;;;48.10;17.23;;;9.70;99.90;;;;;;5054779;28;20171;-79
2021/12/17 07:55:43;;;;;;;49.90;18.10;;;9.70;99.90;;;;;;5054117;28;20021;-80
2021/12/17 07:58:09;;;;;;;50.17;18.60;;;9.80;99.90;;;;;;5037749;28;20032;-80
2021/12/17 08:00:34;;;;;;;52.47;19.70;;;9.70;99.90;;;;;;5037453;28;20461;-80
2021/12/17 08:03:00;;;;;;;50.77;19.30;;;9.70;99.90;;;;;;5021850;28;20104;-79
2021/12/17 08:05:26;;;;;;;50.27;18.33;;;9.70;99.90;;;;;;5053812;28;20051;-80
2021/12/17 08:07:51;;;;;;;48.17;16.97;;;9.70;99.90;;;;;;5054278;28;20053;-81
2021/12/17 08:10:17;;;;;;;52.80;18.30;;;9.80;99.90;;;;;;5037015;28;20417;-80
2021/12/17 08:12:43;;;;;;;48.67;18.27;;;9.80;99.90;;;;;;5054455;28;20488;-79
2021/12/17 08:15:11;;;;;;;54.87;19.40;;;9.90;99.90;;;;;;5053698;28;20390;-79
2021/12/17 08:25:49;;;;;;;51.23;21.60;;;10.00;99.90;;;;;;5054360;28;20515;-81
2021/12/17 08:28:16;;;;;;;55.75;22.60;;;10.20;99.90;;;;;;5039951;28;20100;-80
2021/12/17 08:30:42;;;;;;;52.00;21.23;;;10.20;99.90;;;;;;5037795;28;20385;-80
2021/12/17 08:33:09;;;;;;;55.17;23.30;;;10.20;99.90;;;;;;5036370;28;20025;-80
2021/12/17 08:35:36;;;;;;;54.67;23.50;;;10.20;99.90;;;;;;5053269;28;20025;-81
2021/12/17 08:38:05;;;;;;;58.10;23.03;;;10.10;99.90;;;;;;5052533;28;20032;-81
2021/12/17 08:40:32;;;;;;;59.77;25.30;;;10.10;99.90;;;;;;5052573;28;20084;-81
2021/12/17 08:42:58;;;;;;;54.53;22.80;;;10.00;99.90;;;;;;5052911;28;20021;-80
2021/12/17 08:45:24;;;;;;;52.13;21.90;;;9.80;99.90;;;;;;5052872;28;20037;-80
2021/12/17 08:47:51;;;;;;;50.57;20.53;;;9.70;99.90;;;;;;5054038;28;20033;-80
2021/12/17 08:50:19;;;;;;;49.97;20.47;;;9.60;99.90;;;;;;5052460;28;20116;-79
2021/12/17 08:52:46;;;;;;;55.87;20.77;;;9.50;99.90;;;;;;5036763;28;20025;-81
2021/12/17 08:55:12;;;;;;;61.87;21.10;;;9.40;99.90;;;;;;5052319;28;20082;-80
2021/12/17 08:57:39;;;;;;;62.87;22.10;;;9.20;99.90;;;;;;5053993;28;20052;-80
2021/12/17 09:00:08;;;;;;;57.33;21.07;;;9.20;99.90;;;;;;5053367;28;20039;-80
2021/12/17 09:02:36;;;;;;;61.23;23.20;;;9.10;99.90;;;;;;5055039;28;20017;-80
2021/12/17 09:05:06;;;;;;;55.63;20.83;;;9.10;99.90;;;;;;5052581;28;20032;-79
2021/12/17 09:07:32;;;;;;;60.10;21.13;;;9.00;99.90;;;;;;5053070;28;20027;-79
2021/12/17 09:09:57;;;;;;;59.73;22.77;;;9.00;99.90;;;;;;5051730;28;20025;-79
2021/12/17 09:12:23;;;;;;;63.60;22.07;;;9.00;99.90;;;;;;5052093;28;20033;-81
2021/12/17 09:14:49;;;;;;;67.67;23.00;;;9.10;99.90;;;;;;5052139;28;20074;-80
2021/12/17 09:17:15;;;;;;;63.57;24.70;;;9.10;99.90;;;;;;5053234;28;20037;-78
2021/12/17 09:19:41;;;;;;;61.17;23.30;;;9.10;99.90;;;;;;5035478;28;20065;-79
2021/12/17 09:22:07;;;;;;;69.97;26.23;;;9.20;99.90;;;;;;5051996;28;20021;-81
2021/12/17 09:24:32;;;;;;;69.73;24.70;;;9.20;99.90;;;;;;5035703;28;20479;-80
2021/12/17 09:26:58;;;;;;;62.63;23.33;;;9.10;99.90;;;;;;5053259;28;20024;-78
2021/12/17 09:29:24;;;;;;;67.33;27.03;;;9.20;99.90;;;;;;5051525;28;20033;-79
2021/12/17 09:31:50;;;;;;;66.00;25.23;;;9.30;99.90;;;;;;5035826;28;20381;-80
2021/12/17 09:34:16;;;;;;;61.70;23.63;;;9.30;99.90;;;;;;5052139;28;20036;-80
2021/12/17 09:36:41;;;;;;;71.70;27.47;;;9.30;99.90;;;;;;5035606;28;20025;-80
2021/12/17 09:39:07;;;;;;;63.30;25.43;;;9.50;99.90;;;;;;5053346;28;20037;-81
2021/12/17 09:41:33;;;;;;;57.67;22.30;;;9.60;99.90;;;;;;5034692;28;20073;-79
2021/12/17 09:43:59;;;;;;;55.63;20.80;;;9.60;99.90;;;;;;5051821;28;20089;-80
2021/12/17 09:46:25;;;;;;;55.97;20.87;;;9.50;99.90;;;;;;5035143;28;20029;-79
2021/12/17 09:48:51;;;;;;;51.80;19.13;;;9.40;99.90;;;;;;5051921;28;20037;-80
2021/12/17 09:51:18;;;;;;;55.97;23.67;;;9.40;99.90;;;;;;5039975;28;20082;-80
2021/12/17 09:53:45;;;;;;;71.33;24.97;;;9.40;99.90;;;;;;5057206;28;20444;-81
2021/12/17 09:56:10;;;;;;;62.80;23.97;;;9.30;99.90;;;;;;5039901;28;20040;-81
2021/12/17 09:58:36;;;;;;;71.00;25.37;;;9.30;99.90;;;;;;5055906;28;20395;-80
2021/12/17 10:01:03;;;;;;;64.73;24.63;;;9.40;99.90;;;;;;5055781;28;20194;-80
2021/12/17 10:03:29;;;;;;;75.70;26.73;;;9.50;99.90;;;;;;5056077;28;20032;-80
2021/12/17 10:05:55;;;;;;;71.73;24.93;;;9.50;99.90;;;;;;5056078;28;20025;-78
2021/12/17 10:08:23;;;;;;;67.77;24.43;;;9.40;99.90;;;;;;5056073;28;20106;-80
2021/12/17 10:10:56;;;;;;;68.87;23.87;;;9.30;99.90;;;;;;5056267;28;20465;-81
2021/12/17 10:13:28;;;;;;;75.50;25.43;;;9.40;99.90;;;;;;5056588;28;20080;-84
2021/12/17 10:15:56;;;;;;;62.27;22.20;;;9.30;99.90;;;;;;5056610;28;20021;-80
2021/12/17 10:18:44;;;;;;;77.07;25.67;;;9.30;99.90;;;;;;5055911;28;20079;-80
2021/12/17 10:21:19;;;;;;;102.73;34.40;;;9.20;99.90;;;;;;5055698;28;20025;-81
2021/12/17 10:23:46;;;;;;;86.40;27.80;;;9.20;99.90;;;;;;5056541;28;20131;-79
2021/12/17 10:26:17;;;;;;;74.37;24.73;;;9.30;99.90;;;;;;5055002;28;20032;-80
2021/12/17 10:29:02;;;;;;;83.47;28.37;;;9.30;99.90;;;;;;5057029;28;20366;-81
2021/12/17 10:31:29;;;;;;;72.87;23.80;;;9.30;99.90;;;;;;5056493;28;20021;-80
2021/12/17 10:34:03;;;;;;;82.53;27.90;;;9.30;99.90;;;;;;5054840;28;20461;-80
2021/12/17 10:36:36;;;;;;;78.23;27.47;;;9.30;99.90;;;;;;5054750;28;20029;-80
2021/12/17 10:39:12;;;;;;;79.30;26.17;;;9.30;99.90;;;;;;5055283;28;20041;-80
2021/12/17 10:41:48;;;;;;;73.67;22.87;;;9.40;99.90;;;;;;5039036;28;20473;-80
2021/12/17 10:44:14;;;;;;;67.67;25.47;;;9.30;99.90;;;;;;5054710;28;20087;-79
2021/12/17 10:46:56;;;;;;;63.90;24.77;;;9.20;99.90;;;;;;5038501;28;20033;-81
2021/12/17 10:49:25;;;;;;;61.28;19.98;;;9.40;99.90;;;;;;5054537;28;20436;-80
2021/12/17 10:52:06;;;;;;;63.67;20.73;;;9.40;99.90;;;;;;5054440;28;20100;-80
2021/12/17 10:54:33;;;;;;;56.70;20.03;;;9.40;99.90;;;;;;5054219;28;20078;-79
2021/12/17 10:56:59;;;;;;;57.67;19.70;;;9.70;99.90;;;;;;5054434;28;20116;-80
2021/12/17 10:59:27;;;;;;;56.90;19.13;;;9.70;99.90;;;;;;5054341;28;20068;-80
2021/12/17 11:02:00;;;;;;;54.30;19.33;;;9.70;99.90;;;;;;5053036;28;20055;-80
2021/12/17 11:04:35;;;;;;;53.67;19.13;;;9.70;99.90;;;;;;5054384;28;20017;-81
2021/12/17 11:07:02;;;;;;;52.27;18.90;;;9.70;99.90;;;;;;5055535;28;20556;-80
2021/12/17 11:09:48;;;;;;;47.83;18.07;;;9.80;99.90;;;;;;5055708;28;20116;-80
2021/12/17 11:12:23;;;;;;;50.07;18.53;;;9.90;99.90;;;;;;5056303;28;20048;-81
2021/12/17 11:14:50;;;;;;;51.10;18.33;;;10.10;99.90;;;;;;5055953;28;20016;-81
2021/12/17 11:17:21;;;;;;;50.53;19.13;;;10.20;99.90;;;;;;5054559;28;20198;-80
2021/12/17 11:19:49;;;;;;;55.20;21.80;;;10.30;99.90;;;;;;5054164;28;20033;-81
2021/12/17 11:22:16;;;;;;;46.07;19.23;;;10.40;99.90;;;;;;5055524;28;20021;-82
2021/12/17 11:24:42;;;;;;;54.23;18.90;;;10.40;99.90;;;;;;5055697;28;20055;-82
2021/12/17 11:27:08;;;;;;;44.00;17.40;;;10.40;99.90;;;;;;5038025;28;20025;-80
2021/12/17 11:29:34;;;;;;;42.03;18.27;;;10.50;99.90;;;;;;5054071;28;20047;-80
2021/12/17 11:32:01;;;;;;;49.33;21.40;;;10.50;99.90;;;;;;5054382;28;20053;-81
2021/12/17 11:34:30;;;;;;;48.60;20.17;;;10.60;99.90;;;;;;5054266;28;20036;-81
2021/12/17 11:36:58;;;;;;;49.47;21.10;;;10.40;99.90;;;;;;5038584;28;20033;-81
2021/12/17 11:39:28;;;;;;;44.67;19.50;;;10.30;99.90;;;;;;5055547;28;20043;-82
2021/12/17 11:41:54;;;;;;;44.73;19.10;;;10.10;99.90;;;;;;5055093;28;20045;-81
2021/12/17 11:44:26;;;;;;;43.33;18.13;;;10.10;99.90;;;;;;5054030;28;20535;-81
2021/12/17 11:47:04;;;;;;;42.20;17.25;;;10.10;99.90;;;;;;5055027;28;20021;-81
2021/12/17 11:49:36;;;;;;;42.43;17.13;;;10.30;99.90;;;;;;5055748;28;20037;-81
2021/12/17 11:52:02;;;;;;;37.63;16.27;;;10.30;99.90;;;;;;5040161;28;20060;-80
2021/12/17 11:54:33;;;;;;;42.03;17.27;;;10.20;99.90;;;;;;5054064;28;20033;-81
2021/12/17 11:57:17;;;;;;;37.50;16.50;;;10.00;99.90;;;;;;5054483;28;20511;-81
2021/12/17 11:59:45;;;;;;;43.20;16.30;;;10.00;99.90;;;;;;5053814;28;20029;-80
2021/12/17 12:02:15;;;;;;;41.10;16.43;;;10.00;99.90;;;;;;5053942;28;20111;-79
2021/12/17 12:04:45;;;;;;;41.50;17.20;;;9.90;99.90;;;;;;5054520;28;20469;-80
2021/12/17 12:07:14;;;;;;;35.40;16.07;;;9.80;99.90;;;;;;5053848;28;20021;-81
2021/12/17 12:09:59;;;;;;;31.33;15.47;;;9.80;99.90;;;;;;5053299;28;20041;-81
2021/12/17 12:12:34;;;;;;;33.37;15.10;;;9.80;99.90;;;;;;5053054;28;20071;-80
2021/12/17 12:15:23;;;;;;;36.50;16.60;;;9.90;99.90;;;;;;5053692;28;20071;-81
2021/12/17 12:17:57;;;;;;;35.97;16.20;;;10.00;99.90;;;;;;5054604;28;20021;-81
2021/12/17 12:20:45;;;;;;;37.00;16.37;;;10.10;99.90;;;;;;5054457;28;20029;-81
2021/12/17 12:23:19;;;;;;;36.50;17.03;;;10.10;99.90;;;;;;5054479;28;20054;-81
2021/12/17 12:25:47;;;;;;;38.83;17.70;;;10.10;99.90;;;;;;5053220;28;20033;-79
2021/12/17 12:28:16;;;;;;;32.87;15.70;;;10.00;99.90;;;;;;5036810;28;20409;-80
2021/12/17 12:30:44;;;;;;;41.30;21.07;;;10.10;99.90;;;;;;5053376;28;20492;-80
2021/12/17 12:33:12;;;;;;;36.17;18.37;;;10.20;99.90;;;;;;5054073;28;20029;-81
2021/12/17 12:35:38;;;;;;;32.57;16.73;;;10.20;99.90;;;;;;5053769;28;20028;-80
2021/12/17 12:38:20;;;;;;;36.93;18.07;;;10.20;99.90;;;;;;5020595;28;20021;-80
2021/12/17 12:40:55;;;;;;;31.50;15.80;;;10.10;99.90;;;;;;5053250;28;20059;-80
2021/12/17 12:43:33;;;;;;;29.63;15.13;;;10.00;99.90;;;;;;5052949;28;20298;-81
2021/12/17 12:45:59;;;;;;;32.53;17.40;;;10.10;99.90;;;;;;5052451;28;20017;-80
2021/12/17 12:48:29;;;;;;;37.80;19.47;;;9.90;99.90;;;;;;5052544;28;20044;-81
2021/12/17 12:51:21;;;;;;;32.17;16.00;;;9.80;99.90;;;;;;5052924;28;20029;-81
2021/12/17 12:54:00;;;;;;;30.70;13.67;;;9.90;99.90;;;;;;5052310;28;20082;-81
2021/12/17 12:56:26;;;;;;;26.40;13.60;;;9.90;99.90;;;;;;5053870;28;20095;-81
2021/12/17 12:58:53;;;;;;;24.13;12.63;;;9.80;99.90;;;;;;5052662;28;20036;-80
2021/12/17 13:01:20;;;;;;;29.30;14.87;;;9.70;99.90;;;;;;5052313;28;20048;-81
2021/12/17 13:03:47;;;;;;;30.73;14.57;;;9.80;99.90;;;;;;5052377;28;20079;-81
2021/12/17 13:06:18;;;;;;;27.50;14.90;;;9.70;99.90;;;;;;5053685;28;20462;-81
2021/12/17 13:08:55;;;;;;;29.37;15.53;;;9.50;99.90;;;;;;5052161;28;20457;-81
2021/12/17 13:11:21;;;;;;;31.30;16.40;;;9.50;99.90;;;;;;5035748;28;20033;-80
2021/12/17 13:13:53;;;;;;;31.10;15.67;;;9.60;99.90;;;;;;5036287;28;20029;-81
2021/12/17 13:16:34;;;;;;;32.53;15.50;;;9.70;99.90;;;;;;5053451;28;20512;-80
2021/12/17 13:22:03;;;;;;;30.73;14.10;;;9.50;99.90;;;;;;5052452;28;20190;-80
2021/12/17 13:24:31;;;;;;;38.90;18.43;;;9.50;99.90;;;;;;5051902;28;20113;-82
2021/12/17 13:27:03;;;;;;;35.67;18.83;;;9.50;99.90;;;;;;5052764;28;20029;-81
2021/12/17 13:29:43;;;;;;;48.83;22.17;;;9.60;99.90;;;;;;5053096;28;20029;-81
2021/12/17 13:32:11;;;;;;;32.43;14.80;;;9.60;99.90;;;;;;5052635;28;20049;-80
2021/12/17 13:34:37;;;;;;;27.33;14.20;;;9.60;99.90;;;;;;5052182;28;20032;-80
2021/12/17 13:37:14;;;;;;;30.03;15.40;;;9.50;99.90;;;;;;5052191;28;20025;-80
2021/12/17 13:39:46;;;;;;;24.00;12.93;;;9.60;99.90;;;;;;5051634;28;20045;-81
2021/12/17 13:42:21;;;;;;;26.33;14.47;;;9.80;99.90;;;;;;5053445;28;20056;-80
2021/12/17 13:44:47;;;;;;;27.13;14.03;;;9.90;99.90;;;;;;5051992;28;20059;-80
2021/12/17 13:47:45;;;;;;;22.23;12.20;;;9.90;99.90;;;;;;5051926;28;20029;-81
2021/12/17 13:50:17;;;;;;;21.60;12.37;;;9.80;99.90;;;;;;5043823;28;20052;-81
2021/12/17 13:52:49;;;;;;;21.93;11.53;;;9.70;99.90;;;;;;5052812;28;20082;-81
2021/12/17 13:55:18;;;;;;;24.13;13.47;;;9.60;99.90;;;;;;5051899;28;20112;-82
2021/12/17 13:57:44;;;;;;;20.47;11.87;;;9.60;99.90;;;;;;5052813;28;20110;-81
2021/12/17 14:00:15;;;;;;;17.63;10.33;;;9.70;99.90;;;;;;5053018;28;20083;-81
2021/12/17 14:02:43;;;;;;;18.33;10.47;;;9.60;99.90;;;;;;5053371;28;20017;-81
2021/12/17 14:05:24;;;;;;;20.17;11.03;;;9.60;99.90;;;;;;5051994;28;20025;-81
2021/12/17 14:07:53;;;;;;;18.70;10.97;;;9.60;99.90;;;;;;5052742;28;20568;-80
2021/12/17 14:10:21;;;;;;;14.13;9.60;;;9.60;99.90;;;;;;5051526;28;20120;-80
2021/12/17 14:12:48;;;;;;;17.97;11.40;;;9.70;99.90;;;;;;5051639;28;20013;-81
2021/12/17 14:15:23;;;;;;;14.10;9.53;;;9.70;99.90;;;;;;5051621;28;20028;-81
2021/12/17 14:17:53;;;;;;;19.93;11.53;;;9.70;99.90;;;;;;5052957;28;20476;-80
2021/12/17 14:20:24;;;;;;;22.33;14.30;;;9.80;99.90;;;;;;5051959;28;20025;-79
2021/12/17 14:23:02;;;;;;;26.93;14.87;;;9.90;99.90;;;;;;5051878;28;20021;-80
2021/12/17 14:25:47;;;;;;;24.90;16.07;;;9.90;99.90;;;;;;5052342;28;20021;-80
2021/12/17 14:28:15;;;;;;;24.93;15.53;;;10.00;99.90;;;;;;5052510;28;20384;-80
2021/12/17 14:30:52;;;;;;;14.53;10.03;;;10.20;99.90;;;;;;5051643;28;20096;-81
2021/12/17 14:33:21;;;;;;;15.50;11.40;;;10.10;99.90;;;;;;5052553;28;20104;-81
2021/12/17 14:35:51;;;;;;;14.60;10.50;;;10.00;99.90;;;;;;5052967;28;20021;-82
2021/12/17 14:38:19;;;;;;;16.40;11.30;;;10.00;99.90;;;;;;5055635;28;20025;-80
2021/12/17 14:40:56;;;;;;;14.33;10.70;;;9.90;99.90;;;;;;5054836;28;20063;-80
2021/12/17 14:43:44;;;;;;;16.27;9.73;;;10.00;99.90;;;;;;5055431;28;20033;-81
2021/12/17 14:49:04;;;;;;;12.57;9.47;;;9.90;99.90;;;;;;5056555;28;20048;-81
2021/12/17 15:02:43;;;;;;;14.50;8.80;;;9.70;99.90;;;;;;5055492;28;20041;-80
2021/12/17 15:05:10;;;;;;;21.83;13.17;;;9.80;99.90;;;;;;5054783;28;20025;-81
2021/12/17 15:07:36;;;;;;;28.53;19.03;;;9.80;99.90;;;;;;5038382;28;20119;-81
2021/12/17 15:10:03;;;;;;;30.83;20.67;;;9.80;99.90;;;;;;5054346;28;20124;-81
2021/12/17 15:15:11;;;;;;;25.57;14.57;;;9.90;99.90;;;;;;5055211;28;20099;-81
2021/12/17 15:17:38;;;;;;;28.47;18.73;;;9.90;99.90;;;;;;5054768;28;20415;-82
2021/12/17 15:20:07;;;;;;;32.07;21.00;;;9.90;99.90;;;;;;5037437;28;20029;-82
2021/12/17 15:22:32;;;;;;;27.97;19.40;;;9.90;99.90;;;;;;5055291;28;20039;-82
2021/12/17 15:24:58;;;;;;;19.53;13.93;;;10.00;99.90;;;;;;5021803;28;20029;-82
2021/12/17 15:27:24;;;;;;;10.93;8.40;;;10.10;99.90;;;;;;5037617;28;20194;-81
2021/12/17 15:29:50;;;;;;;17.43;13.77;;;10.00;99.90;;;;;;5055461;28;20025;-80
2021/12/17 15:32:16;;;;;;;15.87;10.87;;;9.90;99.90;;;;;;5054498;28;20021;-80
2021/12/17 15:34:41;;;;;;;14.93;10.80;;;9.90;99.90;;;;;;5054151;28;20033;-83
2021/12/17 15:37:07;;;;;;;8.07;6.07;;;9.80;99.90;;;;;;5037618;28;20029;-82
2021/12/17 15:39:33;;;;;;;8.37;6.80;;;9.80;99.90;;;;;;5054045;28;20504;-83
2021/12/17 15:41:59;;;;;;;18.17;13.97;;;9.70;99.90;;;;;;5053445;28;20496;-81
2021/12/17 15:44:24;;;;;;;10.80;8.07;;;9.60;99.90;;;;;;5037344;28;20128;-83
2021/12/17 15:46:51;;;;;;;7.60;6.10;;;9.70;99.90;;;;;;5037629;28;20446;-82
2021/12/17 15:49:17;;;;;;;4.73;3.67;;;9.60;99.90;;;;;;5037238;28;20477;-82
2021/12/17 15:51:43;;;;;;;17.63;13.00;;;9.60;99.90;;;;;;5055056;28;20031;-81